createdAt,value
2023-03-06T00:00:05.532Z,3.35
2023-03-06T00:01:05.583Z,3.37
2023-03-06T00:02:05.659Z,3.41
2023-03-06T00:03:05.734Z,3.37
2023-03-06T00:04:05.904Z,3.35
2023-03-06T00:05:05.910Z,3.37
2023-03-06T00:06:06.019Z,3.39
2023-03-06T00:07:06.066Z,3.39
2023-03-06T00:08:06.167Z,3.44
2023-03-06T00:09:06.317Z,3.45
2023-03-06T00:10:06.337Z,3.44
2023-03-06T00:11:06.403Z,3.45
2023-03-06T00:12:06.503Z,3.41
2023-03-06T00:13:06.578Z,3.41
2023-03-06T00:14:06.680Z,3.41
2023-03-06T00:15:06.785Z,3.37
2023-03-06T00:16:06.875Z,3.35
2023-03-06T00:17:06.936Z,3.37
2023-03-06T00:18:07.038Z,3.35
2023-03-06T00:19:07.109Z,3.41
2023-03-06T00:20:07.212Z,3.42
2023-03-06T00:21:07.263Z,3.42
2023-03-06T00:22:07.345Z,3.45
2023-03-06T00:23:07.422Z,3.44
2023-03-06T00:24:07.526Z,3.45
2023-03-06T00:25:07.604Z,3.45
2023-03-06T00:26:07.693Z,3.45
2023-03-06T00:27:07.763Z,3.46
2023-03-06T00:28:07.831Z,3.44
2023-03-06T00:29:07.888Z,3.45
2023-03-06T00:30:07.976Z,3.44
2023-03-06T00:31:08.068Z,3.49
2023-03-06T00:32:08.131Z,3.46
2023-03-06T00:33:08.172Z,3.49
2023-03-06T00:34:08.271Z,3.50
2023-03-06T00:35:08.350Z,3.46
2023-03-06T00:36:08.413Z,3.49
2023-03-06T00:37:08.475Z,3.49
2023-03-06T00:38:08.571Z,3.54
2023-03-06T00:39:08.641Z,3.52
2023-03-06T00:40:08.764Z,3.53
2023-03-06T00:41:08.823Z,3.53
2023-03-06T00:42:08.924Z,3.54
2023-03-06T00:43:08.996Z,3.54
2023-03-06T00:44:09.077Z,3.54
2023-03-06T00:45:09.166Z,3.54
2023-03-06T00:46:09.354Z,3.56
2023-03-06T00:47:09.327Z,3.57
2023-03-06T00:48:09.433Z,3.54
2023-03-06T00:49:09.478Z,3.54
2023-03-06T00:50:09.602Z,3.53
2023-03-06T00:51:12.038Z,3.52
2023-03-06T00:52:09.752Z,3.56
2023-03-06T00:53:09.821Z,3.53
2023-03-06T00:54:09.916Z,3.54
2023-03-06T00:55:10.004Z,3.52
2023-03-06T00:56:10.087Z,3.52
2023-03-06T00:57:10.185Z,3.49
2023-03-06T00:58:10.239Z,3.49
2023-03-06T00:59:10.315Z,3.50
2023-03-06T01:00:10.441Z,3.50
2023-03-06T01:01:10.573Z,3.50
2023-03-06T01:02:10.642Z,3.50
2023-03-06T01:03:10.668Z,3.53
2023-03-06T01:04:10.739Z,3.49
2023-03-06T01:05:10.853Z,3.50
2023-03-06T01:06:10.921Z,3.50
2023-03-06T01:07:10.969Z,3.53
2023-03-06T01:08:11.054Z,3.54
2023-03-06T01:09:11.111Z,3.54
2023-03-06T01:10:11.229Z,3.53
2023-03-06T01:11:11.301Z,3.54
2023-03-06T01:12:11.395Z,3.56
2023-03-06T01:13:11.470Z,3.56
2023-03-06T01:14:11.568Z,3.56
2023-03-06T01:15:11.667Z,3.54
2023-03-06T01:16:11.771Z,3.54
2023-03-06T01:17:11.813Z,3.56
2023-03-06T01:18:11.916Z,3.54
2023-03-06T01:19:11.984Z,3.54
2023-03-06T01:20:12.100Z,3.57
2023-03-06T01:21:12.171Z,3.59
2023-03-06T01:22:12.268Z,3.60
2023-03-06T01:23:12.335Z,3.59
2023-03-06T01:24:12.425Z,3.56
2023-03-06T01:25:12.516Z,3.56
2023-03-06T01:26:12.575Z,3.60
2023-03-06T01:27:12.625Z,3.59
2023-03-06T01:28:12.725Z,3.56
2023-03-06T01:29:12.801Z,3.54
2023-03-06T01:30:12.916Z,3.57
2023-03-06T01:31:12.988Z,3.59
2023-03-06T01:32:13.127Z,3.56
2023-03-06T01:33:13.133Z,3.57
2023-03-06T01:34:13.234Z,3.60
2023-03-06T01:35:13.351Z,3.59
2023-03-06T01:36:13.415Z,3.57
2023-03-06T01:37:13.499Z,3.57
2023-03-06T01:38:13.597Z,3.57
2023-03-06T01:39:13.659Z,3.59
2023-03-06T01:40:13.779Z,3.57
2023-03-06T01:41:13.824Z,3.60
2023-03-06T01:42:13.924Z,3.60
2023-03-06T01:43:13.996Z,3.60
2023-03-06T01:44:14.076Z,3.60
2023-03-06T01:45:14.204Z,3.62
2023-03-06T01:46:14.309Z,3.60
2023-03-06T01:47:14.324Z,3.62
2023-03-06T01:48:14.428Z,3.60
2023-03-06T01:49:14.479Z,3.60
2023-03-06T01:50:14.622Z,3.59
2023-03-06T01:51:14.668Z,3.59
2023-03-06T01:52:14.768Z,3.53
2023-03-06T01:53:14.843Z,3.53
2023-03-06T01:54:14.942Z,3.53
2023-03-06T01:55:15.024Z,3.53
2023-03-06T01:56:15.123Z,3.50
2023-03-06T01:57:15.196Z,3.50
2023-03-06T01:58:15.270Z,3.52
2023-03-06T01:59:15.339Z,3.49
2023-03-06T02:00:15.470Z,3.49
2023-03-06T02:01:15.595Z,3.46
2023-03-06T02:02:15.660Z,3.46
2023-03-06T02:03:15.696Z,3.45
2023-03-06T02:04:15.790Z,3.44
2023-03-06T02:05:15.884Z,3.45
2023-03-06T02:06:15.961Z,3.42
2023-03-06T02:07:16.042Z,3.41
2023-03-06T02:08:16.173Z,3.42
2023-03-06T02:09:16.222Z,3.45
2023-03-06T02:10:16.347Z,3.45
2023-03-06T02:11:16.405Z,3.45
2023-03-06T02:12:16.454Z,3.46
2023-03-06T02:13:16.526Z,3.49
2023-03-06T02:14:16.628Z,3.49
2023-03-06T02:15:16.710Z,3.49
2023-03-06T02:16:16.773Z,3.50
2023-03-06T02:17:16.862Z,3.49
2023-03-06T02:18:16.949Z,3.49
2023-03-06T02:19:17.025Z,3.46
2023-03-06T02:20:17.402Z,3.49
2023-03-06T02:21:17.201Z,3.46
2023-03-06T02:22:17.286Z,3.49
2023-03-06T02:23:17.361Z,3.50
2023-03-06T02:24:17.460Z,3.50
2023-03-06T02:25:17.571Z,3.50
2023-03-06T02:26:17.630Z,3.52
2023-03-06T02:27:17.702Z,3.50
2023-03-06T02:28:17.771Z,3.50
2023-03-06T02:29:17.847Z,3.46
2023-03-06T02:30:17.962Z,3.45
2023-03-06T02:31:18.062Z,3.45
2023-03-06T02:32:18.097Z,3.42
2023-03-06T02:33:18.187Z,3.42
2023-03-06T02:34:18.263Z,3.44
2023-03-06T02:35:18.350Z,3.45
2023-03-06T02:36:18.430Z,3.46
2023-03-06T02:37:18.505Z,3.46
2023-03-06T02:38:18.607Z,3.44
2023-03-06T02:39:18.688Z,3.44
2023-03-06T02:40:18.788Z,3.41
2023-03-06T02:41:18.814Z,3.45
2023-03-06T02:42:18.908Z,3.45
2023-03-06T02:43:18.977Z,3.46
2023-03-06T02:44:19.074Z,3.44
2023-03-06T02:45:19.162Z,3.42
2023-03-06T02:46:19.297Z,3.39
2023-03-06T02:47:19.310Z,3.41
2023-03-06T02:48:19.425Z,3.37
2023-03-06T02:49:19.483Z,3.39
2023-03-06T02:50:19.600Z,3.37
2023-03-06T02:51:19.656Z,3.37
2023-03-06T02:52:19.756Z,3.37
2023-03-06T02:53:19.836Z,3.37
2023-03-06T02:54:19.936Z,3.37
2023-03-06T02:55:20.030Z,3.37
2023-03-06T02:56:20.115Z,3.35
2023-03-06T02:57:20.190Z,3.35
2023-03-06T02:58:20.270Z,3.37
2023-03-06T02:59:20.363Z,3.41
2023-03-06T03:00:20.487Z,3.37
2023-03-06T03:01:20.565Z,3.39
2023-03-06T03:02:20.631Z,3.37
2023-03-06T03:03:20.709Z,3.39
2023-03-06T03:04:20.840Z,3.37
2023-03-06T03:05:20.930Z,3.37
2023-03-06T03:06:20.988Z,3.41
2023-03-06T03:07:21.063Z,3.39
2023-03-06T03:08:21.147Z,3.37
2023-03-06T03:09:21.220Z,3.39
2023-03-06T03:10:21.341Z,3.39
2023-03-06T03:11:21.360Z,3.39
2023-03-06T03:12:21.458Z,3.35
2023-03-06T03:13:21.533Z,3.35
2023-03-06T03:14:21.620Z,3.37
2023-03-06T03:15:21.705Z,3.37
2023-03-06T03:16:21.814Z,3.41
2023-03-06T03:17:21.849Z,3.39
2023-03-06T03:18:21.933Z,3.39
2023-03-06T03:19:22.014Z,3.41
2023-03-06T03:20:22.128Z,3.42
2023-03-06T03:21:22.202Z,3.42
2023-03-06T03:22:22.297Z,3.45
2023-03-06T03:23:22.380Z,3.45
2023-03-06T03:24:22.474Z,3.44
2023-03-06T03:25:22.555Z,3.42
2023-03-06T03:26:22.610Z,3.45
2023-03-06T03:27:22.684Z,3.45
2023-03-06T03:28:22.786Z,3.44
2023-03-06T03:29:22.870Z,3.45
2023-03-06T03:30:22.997Z,3.49
2023-03-06T03:31:23.136Z,3.46
2023-03-06T03:32:23.234Z,3.46
2023-03-06T03:33:23.212Z,3.46
2023-03-06T03:34:23.327Z,3.45
2023-03-06T03:35:23.486Z,3.44
2023-03-06T03:36:23.476Z,3.46
2023-03-06T03:37:23.546Z,3.44
2023-03-06T03:38:23.646Z,3.44
2023-03-06T03:39:23.718Z,3.42
2023-03-06T03:40:23.819Z,3.45
2023-03-06T03:41:23.914Z,3.46
2023-03-06T03:42:23.970Z,3.49
2023-03-06T03:43:24.043Z,3.45
2023-03-06T03:44:24.149Z,3.46
2023-03-06T03:45:24.255Z,3.45
2023-03-06T03:46:24.330Z,3.45
2023-03-06T03:47:24.388Z,3.44
2023-03-06T03:48:24.483Z,3.46
2023-03-06T03:49:24.560Z,3.49
2023-03-06T03:50:24.681Z,3.50
2023-03-06T03:51:24.712Z,3.50
2023-03-06T03:52:24.864Z,3.49
2023-03-06T03:53:24.846Z,3.49
2023-03-06T03:54:24.940Z,3.49
2023-03-06T03:55:25.021Z,3.52
2023-03-06T03:56:25.076Z,3.50
2023-03-06T03:57:25.176Z,3.50
2023-03-06T03:58:25.251Z,3.52
2023-03-06T03:59:25.339Z,3.52
2023-03-06T04:00:25.519Z,3.52
2023-03-06T04:01:25.501Z,3.52
2023-03-06T04:02:25.635Z,3.52
2023-03-06T04:03:25.673Z,3.50
2023-03-06T04:04:25.829Z,3.53
2023-03-06T04:05:25.873Z,3.53
2023-03-06T04:06:25.919Z,3.56
2023-03-06T04:07:26.019Z,3.54
2023-03-06T04:08:26.096Z,3.54
2023-03-06T04:09:26.194Z,3.52
2023-03-06T04:10:26.272Z,3.50
2023-03-06T04:11:26.323Z,3.50
2023-03-06T04:12:26.390Z,3.52
2023-03-06T04:13:26.468Z,3.52
2023-03-06T04:14:26.534Z,3.53
2023-03-06T04:15:26.655Z,3.49
2023-03-06T04:16:26.732Z,3.52
2023-03-06T04:17:26.797Z,3.53
2023-03-06T04:18:26.860Z,3.50
2023-03-06T04:19:26.960Z,3.50
2023-03-06T04:20:27.075Z,3.52
2023-03-06T04:21:27.123Z,3.52
2023-03-06T04:22:27.201Z,3.49
2023-03-06T04:23:27.294Z,3.49
2023-03-06T04:24:27.364Z,3.49
2023-03-06T04:25:27.475Z,3.44
2023-03-06T04:26:27.505Z,3.42
2023-03-06T04:27:27.628Z,3.44
2023-03-06T04:28:27.691Z,3.42
2023-03-06T04:29:27.785Z,3.42
2023-03-06T04:30:27.878Z,3.33
2023-03-06T04:31:27.969Z,3.33
2023-03-06T04:32:28.080Z,3.34
2023-03-06T04:33:28.100Z,3.31
2023-03-06T04:34:28.173Z,3.31
2023-03-06T04:35:28.297Z,3.34
2023-03-06T04:36:28.327Z,3.34
2023-03-06T04:37:28.399Z,3.35
2023-03-06T04:38:28.477Z,3.39
2023-03-06T04:39:28.568Z,3.37
2023-03-06T04:40:28.679Z,3.37
2023-03-06T04:41:28.732Z,3.39
2023-03-06T04:42:28.792Z,3.41
2023-03-06T04:43:28.900Z,3.37
2023-03-06T04:44:28.971Z,3.39
2023-03-06T04:45:29.143Z,3.39
2023-03-06T04:46:29.124Z,3.39
2023-03-06T04:47:29.219Z,3.39
2023-03-06T04:48:29.292Z,3.39
2023-03-06T04:49:29.385Z,3.39
2023-03-06T04:50:29.480Z,3.39
2023-03-06T04:51:29.558Z,3.41
2023-03-06T04:52:29.631Z,3.37
2023-03-06T04:53:29.715Z,3.33
2023-03-06T04:54:29.785Z,3.33
2023-03-06T04:55:29.922Z,3.31
2023-03-06T04:56:29.958Z,3.31
2023-03-06T04:57:30.059Z,3.34
2023-03-06T04:58:30.152Z,3.34
2023-03-06T04:59:30.240Z,3.37
2023-03-06T05:00:30.342Z,3.41
2023-03-06T05:01:30.402Z,3.39
2023-03-06T05:02:30.524Z,3.42
2023-03-06T05:03:30.565Z,3.41
2023-03-06T05:04:30.636Z,3.39
2023-03-06T05:05:30.749Z,3.39
2023-03-06T05:06:30.785Z,3.35
2023-03-06T05:07:30.862Z,3.37
2023-03-06T05:08:30.937Z,3.39
2023-03-06T05:09:31.037Z,3.39
2023-03-06T05:10:31.125Z,3.39
2023-03-06T05:11:31.189Z,3.44
2023-03-06T05:12:31.259Z,3.39
2023-03-06T05:13:31.365Z,3.41
2023-03-06T05:14:31.434Z,3.41
2023-03-06T05:15:31.547Z,3.41
2023-03-06T05:16:31.635Z,3.41
2023-03-06T05:17:31.717Z,3.39
2023-03-06T05:18:31.790Z,3.39
2023-03-06T05:19:31.902Z,3.37
2023-03-06T05:20:31.984Z,3.39
2023-03-06T05:21:32.037Z,3.42
2023-03-06T05:22:32.115Z,3.39
2023-03-06T05:23:32.216Z,3.39
2023-03-06T05:24:32.273Z,3.41
2023-03-06T05:25:32.390Z,3.41
2023-03-06T05:26:32.455Z,3.39
2023-03-06T05:27:32.546Z,3.37
2023-03-06T05:28:32.611Z,3.35
2023-03-06T05:29:32.708Z,3.33
2023-03-06T05:30:32.807Z,3.34
2023-03-06T05:31:32.949Z,3.34
2023-03-06T05:32:35.447Z,3.33
2023-03-06T05:33:32.996Z,3.33
2023-03-06T05:34:33.074Z,3.31
2023-03-06T05:35:33.197Z,3.33
2023-03-06T05:36:33.269Z,3.31
2023-03-06T05:37:33.373Z,3.34
2023-03-06T05:38:33.435Z,3.34
2023-03-06T05:39:33.524Z,3.33
2023-03-06T05:40:33.613Z,3.33
2023-03-06T05:41:33.686Z,3.33
2023-03-06T05:42:33.760Z,3.28
2023-03-06T05:43:33.865Z,3.28
2023-03-06T05:44:33.935Z,3.26
2023-03-06T05:45:34.071Z,3.26
2023-03-06T05:46:34.107Z,3.25
2023-03-06T05:47:34.193Z,3.25
2023-03-06T05:48:34.261Z,3.25
2023-03-06T05:49:34.356Z,3.28
2023-03-06T05:50:34.422Z,3.26
2023-03-06T05:51:34.491Z,3.26
2023-03-06T05:52:34.587Z,3.30
2023-03-06T05:53:34.662Z,3.31
2023-03-06T05:54:34.832Z,3.31
2023-03-06T05:55:34.898Z,3.33
2023-03-06T05:56:34.936Z,3.31
2023-03-06T05:57:34.998Z,3.31
2023-03-06T05:58:35.114Z,3.31
2023-03-06T05:59:35.166Z,3.31
2023-03-06T06:00:35.257Z,3.33
2023-03-06T06:01:35.325Z,3.30
2023-03-06T06:02:35.443Z,3.28
2023-03-06T06:03:35.514Z,3.25
2023-03-06T06:04:35.552Z,3.26
2023-03-06T06:05:35.672Z,3.28
2023-03-06T06:06:35.744Z,3.26
2023-03-06T06:07:35.847Z,3.26
2023-03-06T06:08:35.918Z,3.28
2023-03-06T06:09:36.018Z,3.31
2023-03-06T06:10:36.136Z,3.31
2023-03-06T06:11:36.174Z,3.34
2023-03-06T06:12:36.242Z,3.35
2023-03-06T06:13:36.364Z,3.37
2023-03-06T06:14:36.423Z,3.37
2023-03-06T06:15:36.572Z,3.39
2023-03-06T06:16:36.619Z,3.39
2023-03-06T06:17:36.722Z,3.37
2023-03-06T06:18:38.662Z,3.37
2023-03-06T06:19:36.912Z,3.35
2023-03-06T06:20:37.011Z,3.37
2023-03-06T06:21:37.093Z,3.37
2023-03-06T06:22:37.167Z,3.37
2023-03-06T06:23:37.252Z,3.39
2023-03-06T06:24:37.313Z,3.35
2023-03-06T06:25:37.411Z,3.39
2023-03-06T06:26:37.456Z,3.35
2023-03-06T06:27:37.552Z,3.35
2023-03-06T06:28:37.618Z,3.37
2023-03-06T06:29:37.697Z,3.35
2023-03-06T06:30:37.780Z,3.33
2023-03-06T06:31:37.839Z,3.34
2023-03-06T06:32:38.094Z,3.33
2023-03-06T06:33:37.998Z,3.33
2023-03-06T06:34:38.067Z,3.31
2023-03-06T06:35:38.179Z,3.33
2023-03-06T06:36:38.234Z,3.33
2023-03-06T06:37:38.306Z,3.33
2023-03-06T06:38:38.373Z,3.34
2023-03-06T06:39:38.467Z,3.35
2023-03-06T06:40:38.551Z,3.34
2023-03-06T06:41:55.235Z,3.33
2023-03-06T06:42:40.271Z,3.31
2023-03-06T06:43:38.783Z,3.31
2023-03-06T06:44:38.880Z,3.34
2023-03-06T06:45:38.980Z,3.30
2023-03-06T06:47:20.770Z,3.31
2023-03-06T06:47:39.135Z,3.30
2023-03-06T06:48:39.179Z,3.28
2023-03-06T06:49:39.282Z,3.28
2023-03-06T06:50:39.381Z,3.30
2023-03-06T06:51:39.444Z,3.30
2023-03-06T06:52:39.514Z,3.33
2023-03-06T06:53:39.586Z,3.34
2023-03-06T06:54:39.662Z,3.34
2023-03-06T06:55:39.783Z,3.35
2023-03-06T06:56:39.856Z,3.37
2023-03-06T06:57:39.960Z,3.35
2023-03-06T06:58:40.058Z,3.35
2023-03-06T06:59:40.109Z,3.35
2023-03-06T07:00:40.211Z,3.35
2023-03-06T07:01:40.284Z,3.35
2023-03-06T07:02:40.349Z,3.34
2023-03-06T07:03:40.458Z,3.35
2023-03-06T07:04:52.231Z,3.33
2023-03-06T07:05:40.630Z,3.35
2023-03-06T07:06:40.682Z,3.33
2023-03-06T07:07:40.758Z,3.34
2023-03-06T07:08:40.874Z,3.33
2023-03-06T07:09:40.930Z,3.33
2023-03-06T07:10:41.004Z,3.33
2023-03-06T07:11:41.085Z,3.31
2023-03-06T07:12:41.156Z,3.31
2023-03-06T07:13:41.235Z,3.34
2023-03-06T07:14:41.311Z,3.37
2023-03-06T07:15:41.436Z,3.39
2023-03-06T07:16:41.448Z,3.41
2023-03-06T07:17:41.522Z,3.45
2023-03-06T07:18:41.567Z,3.44
2023-03-06T07:19:41.696Z,3.50
2023-03-06T07:20:41.833Z,3.50
2023-03-06T07:21:41.831Z,3.52
2023-03-06T07:22:50.885Z,3.53
2023-03-06T07:23:41.998Z,3.54
2023-03-06T07:24:42.066Z,3.54
2023-03-06T07:25:42.154Z,3.53
2023-03-06T07:26:42.220Z,3.54
2023-03-06T07:27:42.309Z,3.54
2023-03-06T07:28:52.054Z,3.52
2023-03-06T07:29:42.454Z,3.54
2023-03-06T07:30:42.530Z,3.57
2023-03-06T07:31:42.595Z,3.57
2023-03-06T07:32:42.757Z,3.59
2023-03-06T07:33:42.752Z,3.57
2023-03-06T07:34:42.822Z,3.59
2023-03-06T07:35:42.998Z,3.60
2023-03-06T07:36:42.992Z,3.59
2023-03-06T07:37:43.092Z,3.62
2023-03-06T07:38:43.165Z,3.60
2023-03-06T07:39:43.263Z,3.62
2023-03-06T07:40:43.342Z,3.64
2023-03-06T07:41:43.449Z,3.68
2023-03-06T07:42:43.515Z,3.64
2023-03-06T07:43:43.620Z,3.71
2023-03-06T07:44:43.685Z,3.75
2023-03-06T07:45:43.787Z,3.75
2023-03-06T07:46:43.922Z,3.81
2023-03-06T07:47:43.921Z,3.86
2023-03-06T07:48:43.988Z,3.90
2023-03-06T07:49:44.077Z,3.90
2023-03-06T07:50:44.149Z,3.86
2023-03-06T07:51:44.237Z,3.88
2023-03-06T07:52:44.298Z,3.84
2023-03-06T07:53:44.383Z,3.88
2023-03-06T07:54:44.475Z,3.89
2023-03-06T07:55:44.626Z,3.89
2023-03-06T07:56:44.632Z,3.90
2023-03-06T07:57:44.723Z,3.95
2023-03-06T07:58:44.847Z,3.98
2023-03-06T07:59:44.909Z,3.95
2023-03-06T08:00:44.972Z,3.96
2023-03-06T08:01:45.041Z,3.99
2023-03-06T08:02:45.137Z,4.00
2023-03-06T08:03:45.286Z,4.04
2023-03-06T08:04:45.284Z,4.06
2023-03-06T08:05:45.532Z,4.04
2023-03-06T08:06:45.438Z,4.08
2023-03-06T08:07:45.551Z,4.08
2023-03-06T08:08:45.600Z,4.13
2023-03-06T08:09:45.715Z,4.10
2023-03-06T08:10:45.819Z,4.10
2023-03-06T08:11:45.861Z,4.10
2023-03-06T08:12:45.930Z,4.10
2023-03-06T08:13:45.986Z,4.13
2023-03-06T08:14:46.061Z,4.13
2023-03-06T08:15:46.138Z,4.18
2023-03-06T08:16:46.236Z,4.17
2023-03-06T08:17:46.281Z,4.21
2023-03-06T08:18:46.760Z,4.24
2023-03-06T08:19:46.421Z,4.28
2023-03-06T08:20:46.528Z,4.31
2023-03-06T08:21:46.579Z,4.35
2023-03-06T08:22:46.646Z,4.38
2023-03-06T08:23:46.727Z,4.42
2023-03-06T08:24:46.808Z,4.47
2023-03-06T08:25:46.882Z,4.51
2023-03-06T08:26:46.964Z,4.51
2023-03-06T08:27:47.033Z,4.54
2023-03-06T08:28:47.121Z,4.61
2023-03-06T08:29:47.219Z,4.65
2023-03-06T08:30:47.274Z,4.72
2023-03-06T08:31:47.439Z,4.74
2023-03-06T08:32:47.473Z,4.77
2023-03-06T08:33:47.524Z,4.88
2023-03-06T08:34:47.583Z,4.91
2023-03-06T08:35:47.698Z,4.96
2023-03-06T08:36:47.711Z,5.06
2023-03-06T08:37:47.804Z,5.15
2023-03-06T08:38:47.883Z,5.24
2023-03-06T08:39:47.983Z,5.19
2023-03-06T08:40:48.068Z,5.23
2023-03-06T08:41:48.161Z,5.24
2023-03-06T08:42:48.222Z,5.23
2023-03-06T08:43:48.324Z,5.23
2023-03-06T08:44:48.398Z,5.26
2023-03-06T08:45:48.531Z,5.23
2023-03-06T08:46:48.590Z,5.19
2023-03-06T08:47:48.658Z,5.11
2023-03-06T08:48:48.727Z,5.05
2023-03-06T08:49:48.817Z,5.02
2023-03-06T08:50:48.908Z,5.05
2023-03-06T08:51:48.961Z,5.04
2023-03-06T08:52:49.026Z,5.01
2023-03-06T08:53:49.129Z,4.94
2023-03-06T08:54:49.200Z,4.96
2023-03-06T08:55:49.310Z,4.91
2023-03-06T08:56:49.343Z,4.88
2023-03-06T08:57:49.452Z,4.93
2023-03-06T08:58:49.516Z,4.93
2023-03-06T08:59:49.619Z,4.97
2023-03-06T09:00:49.866Z,4.99
2023-03-06T09:01:49.788Z,5.05
2023-03-06T09:02:49.885Z,5.09
2023-03-06T09:03:49.942Z,5.15
2023-03-06T09:04:50.044Z,5.19
2023-03-06T09:05:50.141Z,5.26
2023-03-06T09:06:50.185Z,5.33
2023-03-06T09:07:50.267Z,5.33
2023-03-06T09:08:50.332Z,5.35
2023-03-06T09:09:50.417Z,5.33
2023-03-06T09:10:50.564Z,5.27
2023-03-06T09:11:50.579Z,5.27
2023-03-06T09:12:53.125Z,5.22
2023-03-06T09:13:50.750Z,5.23
2023-03-06T09:14:50.809Z,5.20
2023-03-06T09:15:50.909Z,5.20
2023-03-06T09:16:51.006Z,5.19
2023-03-06T09:17:51.101Z,5.22
2023-03-06T09:18:51.126Z,5.26
2023-03-06T09:19:51.220Z,5.27
2023-03-06T09:20:51.331Z,5.30
2023-03-06T09:21:51.390Z,5.30
2023-03-06T09:22:51.463Z,5.26
2023-03-06T09:23:51.550Z,5.27
2023-03-06T09:24:51.617Z,5.33
2023-03-06T09:25:51.735Z,5.37
2023-03-06T09:26:51.894Z,5.35
2023-03-06T09:28:08.692Z,5.40
2023-03-06T09:28:51.939Z,5.40
2023-03-06T09:29:52.089Z,5.45
2023-03-06T09:30:52.208Z,5.47
2023-03-06T09:31:52.210Z,5.49
2023-03-06T09:32:52.282Z,5.47
2023-03-06T09:33:52.385Z,5.48
2023-03-06T09:34:52.458Z,5.49
2023-03-06T09:35:52.644Z,5.47
2023-03-06T09:36:57.349Z,5.47
2023-03-06T09:37:52.719Z,5.48
2023-03-06T09:38:52.781Z,5.48
2023-03-06T09:39:52.872Z,5.47
2023-03-06T09:40:52.972Z,5.47
2023-03-06T09:41:53.031Z,5.42
2023-03-06T09:42:53.094Z,5.41
2023-03-06T09:43:53.186Z,5.45
2023-03-06T09:44:53.286Z,5.45
2023-03-06T09:45:53.390Z,5.40
2023-03-06T09:46:53.426Z,5.41
2023-03-06T09:47:53.514Z,5.44
2023-03-06T09:48:53.577Z,5.42
2023-03-06T09:49:53.653Z,5.45
2023-03-06T09:50:53.745Z,5.45
2023-03-06T09:51:53.837Z,5.41
2023-03-06T09:52:53.902Z,5.32
2023-03-06T09:53:53.997Z,5.30
2023-03-06T09:54:54.067Z,5.27
2023-03-06T09:55:54.173Z,5.30
2023-03-06T09:56:54.232Z,5.29
2023-03-06T09:57:54.326Z,5.32
2023-03-06T09:58:54.389Z,5.30
2023-03-06T09:59:54.500Z,5.32
2023-03-06T10:00:54.566Z,5.29
2023-03-06T10:01:54.651Z,5.24
2023-03-06T10:02:54.879Z,5.30
2023-03-06T10:03:54.805Z,5.29
2023-03-06T10:04:54.941Z,5.33
2023-03-06T10:05:54.981Z,5.40
2023-03-06T10:06:55.042Z,5.42
2023-03-06T10:07:55.141Z,5.48
2023-03-06T10:08:55.210Z,5.49
2023-03-06T10:09:55.295Z,5.55
2023-03-06T10:10:55.388Z,5.58
2023-03-06T10:11:55.451Z,5.60
2023-03-06T10:12:55.520Z,5.66
2023-03-06T10:13:55.622Z,5.66
2023-03-06T10:14:55.690Z,5.70
2023-03-06T10:15:55.842Z,5.73
2023-03-06T10:16:55.870Z,5.74
2023-03-06T10:17:55.965Z,5.85
2023-03-06T10:18:56.021Z,5.95
2023-03-06T10:19:56.114Z,6.02
2023-03-06T10:20:56.194Z,6.13
2023-03-06T10:21:56.268Z,6.16
2023-03-06T10:23:01.087Z,6.24
2023-03-06T10:23:56.403Z,6.32
2023-03-06T10:24:56.458Z,6.38
2023-03-06T10:25:56.575Z,6.40
2023-03-06T10:26:56.738Z,6.45
2023-03-06T10:27:56.737Z,6.53
2023-03-06T10:28:56.797Z,6.63
2023-03-06T10:30:03.115Z,6.68
2023-03-06T10:30:57.003Z,6.79
2023-03-06T10:31:57.022Z,6.83
2023-03-06T10:32:57.114Z,6.94
2023-03-06T10:33:57.228Z,7.00
2023-03-06T10:34:57.306Z,7.00
2023-03-06T10:35:57.508Z,7.00
2023-03-06T10:36:57.460Z,6.97
2023-03-06T10:37:57.545Z,6.96
2023-03-06T10:38:57.631Z,6.94
2023-03-06T10:39:57.726Z,6.91
2023-03-06T10:40:57.793Z,6.90
2023-03-06T10:41:57.868Z,6.93
2023-03-06T10:43:10.779Z,6.94
2023-03-06T10:43:58.049Z,6.96
2023-03-06T10:44:58.102Z,6.97
2023-03-06T10:45:58.239Z,6.93
2023-03-06T10:46:58.255Z,6.86
2023-03-06T10:47:58.337Z,6.83
2023-03-06T10:48:58.410Z,6.78
2023-03-06T10:49:58.523Z,6.75
2023-03-06T10:50:59.711Z,6.73
2023-03-06T10:51:58.649Z,6.75
2023-03-06T10:52:58.710Z,6.73
2023-03-06T10:53:58.798Z,6.69
2023-03-06T10:54:58.866Z,6.69
2023-03-06T10:55:58.954Z,6.64
2023-03-06T10:56:59.007Z,6.58
2023-03-06T10:57:59.107Z,6.60
2023-03-06T10:58:59.188Z,6.58
2023-03-06T10:59:59.300Z,6.55
2023-03-06T11:00:59.374Z,6.57
2023-03-06T11:01:59.530Z,6.61
2023-03-06T11:02:59.515Z,6.63
2023-03-06T11:03:59.621Z,6.60
2023-03-06T11:04:59.687Z,6.55
2023-03-06T11:05:59.820Z,6.50
2023-03-06T11:06:59.917Z,6.46
2023-03-06T11:07:59.992Z,6.46
2023-03-06T11:08:59.998Z,6.46
2023-03-06T11:10:00.120Z,6.48
2023-03-06T11:11:00.174Z,6.53
2023-03-06T11:12:00.254Z,6.61
2023-03-06T11:13:00.315Z,6.68
2023-03-06T11:14:00.412Z,6.71
2023-03-06T11:15:00.481Z,6.76
2023-03-06T11:16:00.656Z,6.81
2023-03-06T11:17:00.675Z,6.86
2023-03-06T11:18:00.778Z,6.91
2023-03-06T11:19:00.833Z,6.90
2023-03-06T11:20:00.920Z,6.96
2023-03-06T11:21:01.007Z,6.99
2023-03-06T11:22:01.056Z,7.00
2023-03-06T11:23:01.111Z,7.07
2023-03-06T11:24:01.188Z,7.12
2023-03-06T11:25:01.456Z,7.18
2023-03-06T11:26:01.341Z,7.21
2023-03-06T11:27:01.403Z,7.24
2023-03-06T11:28:01.488Z,7.18
2023-03-06T11:29:01.595Z,7.16
2023-03-06T11:30:01.644Z,7.14
2023-03-06T11:31:01.805Z,7.07
2023-03-06T11:32:01.855Z,6.93
2023-03-06T11:33:01.857Z,6.83
2023-03-06T11:34:01.938Z,6.81
2023-03-06T11:35:02.085Z,6.81
2023-03-06T11:36:02.114Z,6.83
2023-03-06T11:37:02.167Z,6.86
2023-03-06T11:38:02.252Z,6.89
2023-03-06T11:39:02.322Z,6.94
2023-03-06T11:40:02.423Z,6.94
2023-03-06T11:41:02.498Z,7.04
2023-03-06T11:42:02.562Z,7.08
2023-03-06T11:43:02.697Z,7.11
2023-03-06T11:44:02.740Z,7.15
2023-03-06T11:45:03.291Z,7.21
2023-03-06T11:46:02.900Z,7.24
2023-03-06T11:47:03.024Z,7.19
2023-03-06T11:48:03.050Z,7.16
2023-03-06T11:49:03.103Z,7.15
2023-03-06T11:50:03.191Z,7.18
2023-03-06T11:51:03.917Z,7.18
2023-03-06T11:52:03.338Z,7.18
2023-03-06T11:53:03.407Z,7.26
2023-03-06T11:54:03.488Z,7.27
2023-03-06T11:55:03.569Z,7.36
2023-03-06T11:56:03.674Z,7.39
2023-03-06T11:57:03.693Z,7.50
2023-03-06T11:58:03.768Z,7.50
2023-03-06T11:59:03.863Z,7.41
2023-03-06T12:00:03.946Z,7.42
2023-03-06T12:01:04.062Z,7.45
2023-03-06T12:02:04.166Z,7.52
2023-03-06T12:03:04.206Z,7.58
2023-03-06T12:04:04.283Z,7.62
2023-03-06T12:05:04.398Z,7.66
2023-03-06T12:06:04.485Z,7.70
2023-03-06T12:07:07.219Z,7.74
2023-03-06T12:08:04.636Z,7.84
2023-03-06T12:09:04.710Z,7.99
2023-03-06T12:10:05.874Z,8.04
2023-03-06T12:11:04.897Z,8.09
2023-03-06T12:12:04.976Z,8.06
2023-03-06T12:13:05.055Z,7.96
2023-03-06T12:14:05.152Z,7.95
2023-03-06T12:15:05.279Z,7.94
2023-03-06T12:16:05.398Z,7.85
2023-03-06T12:17:05.417Z,7.84
2023-03-06T12:18:05.489Z,7.82
2023-03-06T12:19:05.582Z,7.82
2023-03-06T12:20:05.657Z,7.74
2023-03-06T12:21:05.740Z,7.67
2023-03-06T12:22:05.813Z,7.63
2023-03-06T12:23:15.119Z,7.57
2023-03-06T12:24:06.006Z,7.57
2023-03-06T12:25:06.058Z,7.55
2023-03-06T12:26:06.150Z,7.51
2023-03-06T12:27:06.203Z,7.42
2023-03-06T12:28:06.285Z,7.37
2023-03-06T12:29:06.396Z,7.37
2023-03-06T12:30:06.452Z,7.27
2023-03-06T12:31:06.548Z,7.24
2023-03-06T12:32:06.781Z,7.24
2023-03-06T12:33:06.707Z,7.23
2023-03-06T12:34:06.800Z,7.26
2023-03-06T12:35:06.886Z,7.24
2023-03-06T12:36:06.969Z,7.14
2023-03-06T12:37:07.050Z,7.11
2023-03-06T12:38:07.105Z,7.14
2023-03-06T12:39:07.191Z,7.18
2023-03-06T12:40:07.253Z,7.18
2023-03-06T12:41:07.356Z,7.16
2023-03-06T12:42:11.445Z,7.16
2023-03-06T12:43:07.518Z,7.16
2023-03-06T12:44:07.565Z,7.15
2023-03-06T12:45:07.650Z,7.12
2023-03-06T12:46:07.770Z,7.07
2023-03-06T12:47:07.807Z,7.09
2023-03-06T12:48:07.868Z,7.11
2023-03-06T12:49:07.978Z,7.04
2023-03-06T12:50:08.036Z,7.00
2023-03-06T12:51:08.167Z,7.05
2023-03-06T12:52:08.827Z,7.04
2023-03-06T12:53:08.321Z,7.07
2023-03-06T12:54:08.389Z,7.09
2023-03-06T12:55:08.507Z,7.11
2023-03-06T12:56:08.580Z,7.11
2023-03-06T12:57:08.668Z,6.99
2023-03-06T12:58:08.723Z,6.96
2023-03-06T12:59:08.818Z,6.93
2023-03-06T13:00:08.878Z,6.86
2023-03-06T13:01:09.050Z,6.78
2023-03-06T13:02:09.093Z,6.75
2023-03-06T13:03:09.147Z,6.73
2023-03-06T13:04:09.197Z,6.71
2023-03-06T13:05:09.287Z,6.65
2023-03-06T13:06:09.377Z,6.69
2023-03-06T13:07:09.450Z,6.68
2023-03-06T13:08:09.505Z,6.68
2023-03-06T13:09:09.586Z,6.72
2023-03-06T13:10:09.667Z,6.76
2023-03-06T13:11:09.792Z,6.73
2023-03-06T13:12:09.818Z,6.61
2023-03-06T13:13:09.895Z,6.63
2023-03-06T13:14:09.959Z,6.58
2023-03-06T13:15:10.050Z,6.61
2023-03-06T13:16:10.121Z,6.61
2023-03-06T13:17:10.208Z,6.57
2023-03-06T13:18:10.294Z,6.61
2023-03-06T13:19:10.400Z,6.60